sensor_id;sensor_type;location;lat;lon;timestamp;temperature;humidity
56322;DHT22;42227;6.376;-10.782;2023-03-14T00:01:18;27.40;99.90
56322;DHT22;42227;6.376;-10.782;2023-03-14T00:03:47;27.50;99.90
56322;DHT22;42227;6.376;-10.782;2023-03-14T00:06:16;27.50;99.90
56322;DHT22;42227;6.376;-10.782;2023-03-14T00:08:45;27.50;99.90
56322;DHT22;42227;6.376;-10.782;2023-03-14T00:11:17;27.50;99.90
56322;DHT22;42227;6.376;-10.782;2023-03-14T00:13:49;27.60;99.90
56322;DHT22;42227;6.376;-10.782;2023-03-14T00:16:18;27.50;99.90
56322;DHT22;42227;6.376;-10.782;2023-03-14T00:18:47;27.40;99.90
56322;DHT22;42227;6.376;-10.782;2023-03-14T00:21:15;27.40;99.90
56322;DHT22;42227;6.376;-10.782;2023-03-14T00:23:43;27.50;99.90
56322;DHT22;42227;6.376;-10.782;2023-03-14T00:26:14;27.50;99.90
56322;DHT22;42227;6.376;-10.782;2023-03-14T00:28:43;27.60;99.90
56322;DHT22;42227;6.376;-10.782;2023-03-14T00:31:14;27.60;99.90
56322;DHT22;42227;6.376;-10.782;2023-03-14T00:33:43;27.50;99.90
56322;DHT22;42227;6.376;-10.782;2023-03-14T00:36:14;27.50;99.90
56322;DHT22;42227;6.376;-10.782;2023-03-14T00:38:47;27.50;99.90
56322;DHT22;42227;6.376;-10.782;2023-03-14T00:41:18;27.50;99.90
56322;DHT22;42227;6.376;-10.782;2023-03-14T00:43:46;27.50;99.90
56322;DHT22;42227;6.376;-10.782;2023-03-14T00:46:15;27.50;99.90
56322;DHT22;42227;6.376;-10.782;2023-03-14T00:48:47;27.50;99.90
56322;DHT22;42227;6.376;-10.782;2023-03-14T00:51:16;27.50;99.90
56322;DHT22;42227;6.376;-10.782;2023-03-14T00:53:44;27.50;99.90
56322;DHT22;42227;6.376;-10.782;2023-03-14T00:56:13;27.50;99.90
56322;DHT22;42227;6.376;-10.782;2023-03-14T00:58:42;27.50;99.90
56322;DHT22;42227;6.376;-10.782;2023-03-14T01:01:17;27.50;99.90
56322;DHT22;42227;6.376;-10.782;2023-03-14T01:03:46;27.50;99.90
56322;DHT22;42227;6.376;-10.782;2023-03-14T01:06:18;27.40;99.90
56322;DHT22;42227;6.376;-10.782;2023-03-14T01:08:47;27.40;99.90
56322;DHT22;42227;6.376;-10.782;2023-03-14T01:11:18;27.40;99.90
56322;DHT22;42227;6.376;-10.782;2023-03-14T01:13:48;27.30;99.90
56322;DHT22;42227;6.376;-10.782;2023-03-14T01:16:18;27.20;99.90
56322;DHT22;42227;6.376;-10.782;2023-03-14T01:18:47;27.20;99.90
56322;DHT22;42227;6.376;-10.782;2023-03-14T01:21:21;27.20;99.90
56322;DHT22;42227;6.376;-10.782;2023-03-14T01:23:51;27.10;99.90
56322;DHT22;42227;6.376;-10.782;2023-03-14T01:26:22;26.90;99.90
56322;DHT22;42227;6.376;-10.782;2023-03-14T01:28:53;26.80;99.90
56322;DHT22;42227;6.376;-10.782;2023-03-14T01:31:23;26.80;99.90
56322;DHT22;42227;6.376;-10.782;2023-03-14T01:33:52;26.70;99.90
56322;DHT22;42227;6.376;-10.782;2023-03-14T01:36:20;26.70;99.90
56322;DHT22;42227;6.376;-10.782;2023-03-14T01:38:49;26.70;99.90
56322;DHT22;42227;6.376;-10.782;2023-03-14T01:41:24;26.70;99.90
56322;DHT22;42227;6.376;-10.782;2023-03-14T01:43:55;26.60;99.90
56322;DHT22;42227;6.376;-10.782;2023-03-14T01:46:36;26.60;99.90
56322;DHT22;42227;6.376;-10.782;2023-03-14T01:49:28;26.60;99.90
56322;DHT22;42227;6.376;-10.782;2023-03-14T01:52:06;26.60;99.90
56322;DHT22;42227;6.376;-10.782;2023-03-14T01:54:44;26.50;99.90
56322;DHT22;42227;6.376;-10.782;2023-03-14T01:57:41;26.40;99.90
56322;DHT22;42227;6.376;-10.782;2023-03-14T02:00:14;26.40;99.90
56322;DHT22;42227;6.376;-10.782;2023-03-14T02:02:49;26.20;99.90
56322;DHT22;42227;6.376;-10.782;2023-03-14T02:05:23;26.30;99.90
56322;DHT22;42227;6.376;-10.782;2023-03-14T02:07:58;26.30;99.90
56322;DHT22;42227;6.376;-10.782;2023-03-14T02:10:35;26.10;99.90
56322;DHT22;42227;6.376;-10.782;2023-03-14T02:13:05;26.20;99.90
56322;DHT22;42227;6.376;-10.782;2023-03-14T02:16:10;26.20;99.90
56322;DHT22;42227;6.376;-10.782;2023-03-14T02:18:56;26.30;99.90
56322;DHT22;42227;6.376;-10.782;2023-03-14T02:22:01;26.10;99.90
56322;DHT22;42227;6.376;-10.782;2023-03-14T02:24:56;26.00;99.90
56322;DHT22;42227;6.376;-10.782;2023-03-14T02:27:25;25.90;99.90
56322;DHT22;42227;6.376;-10.782;2023-03-14T02:30:18;26.10;99.90
56322;DHT22;42227;6.376;-10.782;2023-03-14T02:33:00;26.10;99.90
56322;DHT22;42227;6.376;-10.782;2023-03-14T02:35:41;26.10;99.90
56322;DHT22;42227;6.376;-10.782;2023-03-14T02:38:21;26.10;99.90
56322;DHT22;42227;6.376;-10.782;2023-03-14T02:40:50;26.00;99.90
56322;DHT22;42227;6.376;-10.782;2023-03-14T02:43:19;25.90;99.90
56322;DHT22;42227;6.376;-10.782;2023-03-14T02:45:54;26.00;99.90
56322;DHT22;42227;6.376;-10.782;2023-03-14T02:48:51;26.00;99.90
56322;DHT22;42227;6.376;-10.782;2023-03-14T02:51:22;26.00;99.90
56322;DHT22;42227;6.376;-10.782;2023-03-14T02:53:51;26.00;99.90
56322;DHT22;42227;6.376;-10.782;2023-03-14T02:56:21;26.00;99.90
56322;DHT22;42227;6.376;-10.782;2023-03-14T02:58:50;26.00;99.90
56322;DHT22;42227;6.376;-10.782;2023-03-14T03:01:40;26.00;99.90
56322;DHT22;42227;6.376;-10.782;2023-03-14T03:04:08;26.00;99.90
56322;DHT22;42227;6.376;-10.782;2023-03-14T03:06:36;25.90;99.90
56322;DHT22;42227;6.376;-10.782;2023-03-14T03:09:05;25.90;99.90
56322;DHT22;42227;6.376;-10.782;2023-03-14T03:11:33;25.80;99.90
56322;DHT22;42227;6.376;-10.782;2023-03-14T03:14:03;25.90;99.90
56322;DHT22;42227;6.376;-10.782;2023-03-14T03:16:32;25.90;99.90
56322;DHT22;42227;6.376;-10.782;2023-03-14T03:19:00;25.80;99.90
56322;DHT22;42227;6.376;-10.782;2023-03-14T03:21:28;25.90;99.90
56322;DHT22;42227;6.376;-10.782;2023-03-14T03:23:56;25.90;99.90
56322;DHT22;42227;6.376;-10.782;2023-03-14T03:26:25;26.00;99.90
56322;DHT22;42227;6.376;-10.782;2023-03-14T03:28:53;25.90;99.90
56322;DHT22;42227;6.376;-10.782;2023-03-14T03:31:23;25.90;99.90
56322;DHT22;42227;6.376;-10.782;2023-03-14T03:33:51;25.90;99.90
56322;DHT22;42227;6.376;-10.782;2023-03-14T03:36:24;25.90;99.90
56322;DHT22;42227;6.376;-10.782;2023-03-14T03:38:53;25.90;99.90
56322;DHT22;42227;6.376;-10.782;2023-03-14T03:41:21;25.90;99.90
56322;DHT22;42227;6.376;-10.782;2023-03-14T03:43:50;25.70;99.90
56322;DHT22;42227;6.376;-10.782;2023-03-14T03:46:19;25.70;99.90
56322;DHT22;42227;6.376;-10.782;2023-03-14T03:48:48;25.80;99.90
56322;DHT22;42227;6.376;-10.782;2023-03-14T03:51:17;25.90;99.90
56322;DHT22;42227;6.376;-10.782;2023-03-14T03:53:47;25.90;99.90
56322;DHT22;42227;6.376;-10.782;2023-03-14T03:56:20;26.00;99.90
56322;DHT22;42227;6.376;-10.782;2023-03-14T03:58:49;26.00;99.90
56322;DHT22;42227;6.376;-10.782;2023-03-14T04:01:18;26.00;99.90
56322;DHT22;42227;6.376;-10.782;2023-03-14T04:03:49;26.10;99.90
56322;DHT22;42227;6.376;-10.782;2023-03-14T04:06:19;26.10;99.90
56322;DHT22;42227;6.376;-10.782;2023-03-14T04:08:49;26.00;99.90
56322;DHT22;42227;6.376;-10.782;2023-03-14T04:11:52;26.00;99.90
56322;DHT22;42227;6.376;-10.782;2023-03-14T04:14:28;26.10;99.90
56322;DHT22;42227;6.376;-10.782;2023-03-14T04:17:09;26.10;99.90
56322;DHT22;42227;6.376;-10.782;2023-03-14T04:19:38;26.00;99.90
56322;DHT22;42227;6.376;-10.782;2023-03-14T04:22:07;26.10;99.90
56322;DHT22;42227;6.376;-10.782;2023-03-14T04:24:44;26.10;99.90
56322;DHT22;42227;6.376;-10.782;2023-03-14T04:27:12;26.10;99.90
56322;DHT22;42227;6.376;-10.782;2023-03-14T04:29:42;26.00;99.90
56322;DHT22;42227;6.376;-10.782;2023-03-14T04:32:14;26.00;99.90
56322;DHT22;42227;6.376;-10.782;2023-03-14T04:34:42;26.00;99.90
56322;DHT22;42227;6.376;-10.782;2023-03-14T04:37:12;26.00;99.90
56322;DHT22;42227;6.376;-10.782;2023-03-14T04:39:43;26.00;99.90
56322;DHT22;42227;6.376;-10.782;2023-03-14T04:42:18;26.00;99.90
56322;DHT22;42227;6.376;-10.782;2023-03-14T04:44:50;26.00;99.90
56322;DHT22;42227;6.376;-10.782;2023-03-14T04:47:21;26.00;99.90
56322;DHT22;42227;6.376;-10.782;2023-03-14T04:49:51;26.00;99.90
56322;DHT22;42227;6.376;-10.782;2023-03-14T04:52:20;26.00;99.90
56322;DHT22;42227;6.376;-10.782;2023-03-14T04:54:48;25.90;99.90
56322;DHT22;42227;6.376;-10.782;2023-03-14T04:57:18;25.90;99.90
56322;DHT22;42227;6.376;-10.782;2023-03-14T04:59:48;26.00;99.90
56322;DHT22;42227;6.376;-10.782;2023-03-14T05:02:35;26.00;99.90
56322;DHT22;42227;6.376;-10.782;2023-03-14T05:05:22;26.00;99.90
56322;DHT22;42227;6.376;-10.782;2023-03-14T05:08:12;26.00;99.90
56322;DHT22;42227;6.376;-10.782;2023-03-14T05:10:55;25.90;99.90
56322;DHT22;42227;6.376;-10.782;2023-03-14T05:13:41;25.90;99.90
56322;DHT22;42227;6.376;-10.782;2023-03-14T05:16:25;26.00;99.90
56322;DHT22;42227;6.376;-10.782;2023-03-14T05:19:05;25.90;99.90
56322;DHT22;42227;6.376;-10.782;2023-03-14T05:21:56;26.00;99.90
56322;DHT22;42227;6.376;-10.782;2023-03-14T05:24:43;26.00;99.90
56322;DHT22;42227;6.376;-10.782;2023-03-14T05:27:30;26.00;99.90
56322;DHT22;42227;6.376;-10.782;2023-03-14T05:30:07;26.00;99.90
56322;DHT22;42227;6.376;-10.782;2023-03-14T05:32:54;26.00;99.90
56322;DHT22;42227;6.376;-10.782;2023-03-14T05:35:42;26.00;99.90
56322;DHT22;42227;6.376;-10.782;2023-03-14T05:38:29;26.00;99.90
56322;DHT22;42227;6.376;-10.782;2023-03-14T05:41:15;26.00;99.90
56322;DHT22;42227;6.376;-10.782;2023-03-14T05:44:04;26.00;99.90
56322;DHT22;42227;6.376;-10.782;2023-03-14T05:46:55;25.90;99.90
56322;DHT22;42227;6.376;-10.782;2023-03-14T05:49:43;25.90;99.90
56322;DHT22;42227;6.376;-10.782;2023-03-14T05:52:34;25.90;99.90
56322;DHT22;42227;6.376;-10.782;2023-03-14T05:55:40;25.90;99.90
56322;DHT22;42227;6.376;-10.782;2023-03-14T05:58:25;25.90;99.90
56322;DHT22;42227;6.376;-10.782;2023-03-14T06:01:19;25.90;99.90
56322;DHT22;42227;6.376;-10.782;2023-03-14T06:04:10;25.90;99.90
56322;DHT22;42227;6.376;-10.782;2023-03-14T06:06:38;25.90;99.90
56322;DHT22;42227;6.376;-10.782;2023-03-14T06:09:08;25.90;99.90
56322;DHT22;42227;6.376;-10.782;2023-03-14T06:11:39;25.80;99.90
56322;DHT22;42227;6.376;-10.782;2023-03-14T06:27:19;25.80;99.90
56322;DHT22;42227;6.376;-10.782;2023-03-14T06:29:52;25.70;99.90
56322;DHT22;42227;6.376;-10.782;2023-03-14T06:32:20;25.80;99.90
56322;DHT22;42227;6.376;-10.782;2023-03-14T06:34:52;25.80;99.90
56322;DHT22;42227;6.376;-10.782;2023-03-14T06:37:20;25.70;99.90
56322;DHT22;42227;6.376;-10.782;2023-03-14T06:39:49;25.70;99.90
56322;DHT22;42227;6.376;-10.782;2023-03-14T06:42:36;25.60;99.90
56322;DHT22;42227;6.376;-10.782;2023-03-14T06:45:05;25.60;99.90
56322;DHT22;42227;6.376;-10.782;2023-03-14T06:47:35;25.60;99.90
56322;DHT22;42227;6.376;-10.782;2023-03-14T06:50:08;25.50;99.90
56322;DHT22;42227;6.376;-10.782;2023-03-14T06:52:38;25.60;99.90
56322;DHT22;42227;6.376;-10.782;2023-03-14T06:55:06;25.60;99.90
56322;DHT22;42227;6.376;-10.782;2023-03-14T06:57:36;25.60;99.90
56322;DHT22;42227;6.376;-10.782;2023-03-14T07:00:06;25.50;99.90
56322;DHT22;42227;6.376;-10.782;2023-03-14T07:02:36;25.50;99.90
56322;DHT22;42227;6.376;-10.782;2023-03-14T07:05:22;25.50;99.90
56322;DHT22;42227;6.376;-10.782;2023-03-14T07:07:51;25.50;99.90
56322;DHT22;42227;6.376;-10.782;2023-03-14T07:10:19;25.50;99.90
56322;DHT22;42227;6.376;-10.782;2023-03-14T07:12:49;25.50;99.90
56322;DHT22;42227;6.376;-10.782;2023-03-14T07:15:18;25.50;99.90
56322;DHT22;42227;6.376;-10.782;2023-03-14T07:17:51;25.60;99.90
56322;DHT22;42227;6.376;-10.782;2023-03-14T07:20:22;25.60;99.90
56322;DHT22;42227;6.376;-10.782;2023-03-14T07:22:51;25.60;99.90
56322;DHT22;42227;6.376;-10.782;2023-03-14T07:25:29;25.70;99.90
56322;DHT22;42227;6.376;-10.782;2023-03-14T07:27:58;25.90;99.90
56322;DHT22;42227;6.376;-10.782;2023-03-14T07:30:27;25.90;99.90
56322;DHT22;42227;6.376;-10.782;2023-03-14T07:32:57;25.80;99.90
56322;DHT22;42227;6.376;-10.782;2023-03-14T07:35:28;25.60;99.90
56322;DHT22;42227;6.376;-10.782;2023-03-14T07:37:58;25.70;99.90
56322;DHT22;42227;6.376;-10.782;2023-03-14T07:40:33;25.80;99.90
56322;DHT22;42227;6.376;-10.782;2023-03-14T07:43:03;25.90;99.90
56322;DHT22;42227;6.376;-10.782;2023-03-14T07:45:45;25.90;99.90
56322;DHT22;42227;6.376;-10.782;2023-03-14T07:48:17;26.00;99.90
56322;DHT22;42227;6.376;-10.782;2023-03-14T07:50:49;26.00;99.90
56322;DHT22;42227;6.376;-10.782;2023-03-14T07:53:17;26.00;99.90
56322;DHT22;42227;6.376;-10.782;2023-03-14T07:55:46;26.20;99.90
56322;DHT22;42227;6.376;-10.782;2023-03-14T07:58:14;26.20;99.90
56322;DHT22;42227;6.376;-10.782;2023-03-14T08:00:43;26.30;99.90
56322;DHT22;42227;6.376;-10.782;2023-03-14T08:03:12;26.30;99.90
56322;DHT22;42227;6.376;-10.782;2023-03-14T08:05:40;26.70;99.90
56322;DHT22;42227;6.376;-10.782;2023-03-14T08:08:08;26.90;99.90
56322;DHT22;42227;6.376;-10.782;2023-03-14T08:10:36;27.20;99.90
56322;DHT22;42227;6.376;-10.782;2023-03-14T08:13:04;27.50;99.90
56322;DHT22;42227;6.376;-10.782;2023-03-14T08:15:33;27.90;99.90
56322;DHT22;42227;6.376;-10.782;2023-03-14T08:18:01;28.40;99.90
56322;DHT22;42227;6.376;-10.782;2023-03-14T08:20:29;28.30;99.90
56322;DHT22;42227;6.376;-10.782;2023-03-14T08:22:59;29.40;99.90
56322;DHT22;42227;6.376;-10.782;2023-03-14T08:25:28;31.90;99.90
56322;DHT22;42227;6.376;-10.782;2023-03-14T08:27:56;33.60;99.90
56322;DHT22;42227;6.376;-10.782;2023-03-14T08:30:25;35.20;99.90
56322;DHT22;42227;6.376;-10.782;2023-03-14T08:32:53;36.00;99.90
56322;DHT22;42227;6.376;-10.782;2023-03-14T08:35:25;35.90;99.90
56322;DHT22;42227;6.376;-10.782;2023-03-14T08:37:53;36.60;99.90
56322;DHT22;42227;6.376;-10.782;2023-03-14T08:40:21;37.80;97.50
56322;DHT22;42227;6.376;-10.782;2023-03-14T08:42:49;38.20;96.80
56322;DHT22;42227;6.376;-10.782;2023-03-14T08:45:18;38.80;95.20
56322;DHT22;42227;6.376;-10.782;2023-03-14T08:47:46;37.60;96.00
56322;DHT22;42227;6.376;-10.782;2023-03-14T08:52:43;39.10;94.40
56322;DHT22;42227;6.376;-10.782;2023-03-14T08:55:11;39.10;93.70
56322;DHT22;42227;6.376;-10.782;2023-03-14T08:57:39;39.80;92.70
56322;DHT22;42227;6.376;-10.782;2023-03-14T09:00:08;40.00;92.00
56322;DHT22;42227;6.376;-10.782;2023-03-14T09:02:37;40.10;91.60
56322;DHT22;42227;6.376;-10.782;2023-03-14T09:05:06;38.60;92.90
56322;DHT22;42227;6.376;-10.782;2023-03-14T09:07:35;39.50;92.60
56322;DHT22;42227;6.376;-10.782;2023-03-14T09:10:03;39.20;92.40
56322;DHT22;42227;6.376;-10.782;2023-03-14T09:12:32;37.10;96.90
56322;DHT22;42227;6.376;-10.782;2023-03-14T09:15:00;38.90;94.40
56322;DHT22;42227;6.376;-10.782;2023-03-14T09:17:28;40.40;91.60
56322;DHT22;42227;6.376;-10.782;2023-03-14T09:19:57;39.50;91.00
56322;DHT22;42227;6.376;-10.782;2023-03-14T09:22:27;38.40;93.70
56322;DHT22;42227;6.376;-10.782;2023-03-14T09:24:55;36.50;97.80
56322;DHT22;42227;6.376;-10.782;2023-03-14T09:27:23;35.90;99.90
56322;DHT22;42227;6.376;-10.782;2023-03-14T09:29:52;38.30;95.50
56322;DHT22;42227;6.376;-10.782;2023-03-14T09:32:20;38.90;92.70
56322;DHT22;42227;6.376;-10.782;2023-03-14T09:34:48;38.10;95.80
56322;DHT22;42227;6.376;-10.782;2023-03-14T09:37:16;37.50;96.10
56322;DHT22;42227;6.376;-10.782;2023-03-14T09:39:44;36.40;97.80
56322;DHT22;42227;6.376;-10.782;2023-03-14T09:42:20;36.10;98.70
56322;DHT22;42227;6.376;-10.782;2023-03-14T09:45:03;35.80;99.80
56322;DHT22;42227;6.376;-10.782;2023-03-14T09:47:33;35.60;99.70
56322;DHT22;42227;6.376;-10.782;2023-03-14T09:50:13;35.50;99.50
56322;DHT22;42227;6.376;-10.782;2023-03-14T09:52:48;35.40;99.90
56322;DHT22;42227;6.376;-10.782;2023-03-14T09:55:21;35.40;99.10
56322;DHT22;42227;6.376;-10.782;2023-03-14T09:57:54;35.10;99.90
56322;DHT22;42227;6.376;-10.782;2023-03-14T10:00:26;34.90;99.80
56322;DHT22;42227;6.376;-10.782;2023-03-14T10:03:26;34.90;99.80
56322;DHT22;42227;6.376;-10.782;2023-03-14T10:05:55;34.50;99.90
56322;DHT22;42227;6.376;-10.782;2023-03-14T10:08:24;34.90;99.90
56322;DHT22;42227;6.376;-10.782;2023-03-14T10:10:52;34.90;99.90
56322;DHT22;42227;6.376;-10.782;2023-03-14T10:13:23;34.90;99.90
56322;DHT22;42227;6.376;-10.782;2023-03-14T10:15:59;34.60;99.80
56322;DHT22;42227;6.376;-10.782;2023-03-14T10:18:31;34.70;99.90
56322;DHT22;42227;6.376;-10.782;2023-03-14T10:21:17;34.70;99.90
56322;DHT22;42227;6.376;-10.782;2023-03-14T10:23:49;34.70;99.90
56322;DHT22;42227;6.376;-10.782;2023-03-14T10:26:27;34.70;99.90
56322;DHT22;42227;6.376;-10.782;2023-03-14T10:29:08;34.60;99.90
56322;DHT22;42227;6.376;-10.782;2023-03-14T10:31:54;34.10;99.90
56322;DHT22;42227;6.376;-10.782;2023-03-14T10:34:29;34.60;99.90
56322;DHT22;42227;6.376;-10.782;2023-03-14T10:37:04;34.60;99.90
56322;DHT22;42227;6.376;-10.782;2023-03-14T10:39:46;34.70;99.90
56322;DHT22;42227;6.376;-10.782;2023-03-14T10:42:28;34.60;99.90
56322;DHT22;42227;6.376;-10.782;2023-03-14T10:47:54;34.10;99.90
56322;DHT22;42227;6.376;-10.782;2023-03-14T10:50:28;34.00;99.90
56322;DHT22;42227;6.376;-10.782;2023-03-14T10:53:02;33.90;99.90
56322;DHT22;42227;6.376;-10.782;2023-03-14T10:55:43;33.80;99.90
56322;DHT22;42227;6.376;-10.782;2023-03-14T11:03:45;34.30;99.90
56322;DHT22;42227;6.376;-10.782;2023-03-14T11:06:23;34.00;99.90
56322;DHT22;42227;6.376;-10.782;2023-03-14T11:11:31;34.30;99.90
56322;DHT22;42227;6.376;-10.782;2023-03-14T11:14:14;34.40;99.90
56322;DHT22;42227;6.376;-10.782;2023-03-14T11:22:28;33.60;99.90
56322;DHT22;42227;6.376;-10.782;2023-03-14T11:30:39;33.60;99.90
56322;DHT22;42227;6.376;-10.782;2023-03-14T11:33:17;33.90;99.90
56322;DHT22;42227;6.376;-10.782;2023-03-14T11:35:57;33.50;99.90
56322;DHT22;42227;6.376;-10.782;2023-03-14T11:38:40;33.20;99.90
56322;DHT22;42227;6.376;-10.782;2023-03-14T11:41:16;33.40;99.90
56322;DHT22;42227;6.376;-10.782;2023-03-14T11:43:48;33.40;99.90
56322;DHT22;42227;6.376;-10.782;2023-03-14T11:46:42;33.30;99.90
56322;DHT22;42227;6.376;-10.782;2023-03-14T11:51:46;33.30;99.90
56322;DHT22;42227;6.376;-10.782;2023-03-14T11:54:45;33.20;99.90
56322;DHT22;42227;6.376;-10.782;2023-03-14T11:57:16;33.10;99.90
56322;DHT22;42227;6.376;-10.782;2023-03-14T11:59:52;33.30;99.90
56322;DHT22;42227;6.376;-10.782;2023-03-14T12:08:32;33.50;99.90
56322;DHT22;42227;6.376;-10.782;2023-03-14T12:13:36;33.60;99.90
56322;DHT22;42227;6.376;-10.782;2023-03-14T12:16:07;33.70;99.90
56322;DHT22;42227;6.376;-10.782;2023-03-14T12:18:46;33.50;99.90
56322;DHT22;42227;6.376;-10.782;2023-03-14T12:21:15;33.30;99.90
56322;DHT22;42227;6.376;-10.782;2023-03-14T12:26:23;33.50;99.90
56322;DHT22;42227;6.376;-10.782;2023-03-14T12:29:11;33.60;99.90
56322;DHT22;42227;6.376;-10.782;2023-03-14T12:31:45;33.50;99.90
56322;DHT22;42227;6.376;-10.782;2023-03-14T12:48:09;33.60;99.90
56322;DHT22;42227;6.376;-10.782;2023-03-14T12:50:43;33.60;99.90
56322;DHT22;42227;6.376;-10.782;2023-03-14T12:56:26;33.90;99.90
56322;DHT22;42227;6.376;-10.782;2023-03-14T13:12:50;33.70;99.90
56322;DHT22;42227;6.376;-10.782;2023-03-14T13:15:43;33.30;99.90
56322;DHT22;42227;6.376;-10.782;2023-03-14T13:18:42;33.30;99.90
56322;DHT22;42227;6.376;-10.782;2023-03-14T13:24:05;33.50;99.90
56322;DHT22;42227;6.376;-10.782;2023-03-14T13:26:43;33.80;99.90
56322;DHT22;42227;6.376;-10.782;2023-03-14T13:29:29;33.70;99.90
56322;DHT22;42227;6.376;-10.782;2023-03-14T13:32:12;33.70;99.90
56322;DHT22;42227;6.376;-10.782;2023-03-14T13:34:44;33.90;99.90
56322;DHT22;42227;6.376;-10.782;2023-03-14T13:37:30;33.50;99.90
56322;DHT22;42227;6.376;-10.782;2023-03-14T13:39:59;33.60;99.90
56322;DHT22;42227;6.376;-10.782;2023-03-14T13:42:29;34.00;99.90
56322;DHT22;42227;6.376;-10.782;2023-03-14T13:44:57;34.20;99.90
56322;DHT22;42227;6.376;-10.782;2023-03-14T13:47:26;33.70;99.90
56322;DHT22;42227;6.376;-10.782;2023-03-14T13:49:54;33.30;99.90
56322;DHT22;42227;6.376;-10.782;2023-03-14T13:52:39;33.30;99.90
56322;DHT22;42227;6.376;-10.782;2023-03-14T13:55:17;33.70;99.90
56322;DHT22;42227;6.376;-10.782;2023-03-14T13:57:52;33.20;99.90
56322;DHT22;42227;6.376;-10.782;2023-03-14T14:00:25;33.20;99.90
56322;DHT22;42227;6.376;-10.782;2023-03-14T14:02:55;33.30;99.90
56322;DHT22;42227;6.376;-10.782;2023-03-14T14:05:27;33.20;99.90
56322;DHT22;42227;6.376;-10.782;2023-03-14T14:07:56;33.10;99.90
56322;DHT22;42227;6.376;-10.782;2023-03-14T14:10:26;33.20;99.90
56322;DHT22;42227;6.376;-10.782;2023-03-14T14:13:01;32.90;99.90
56322;DHT22;42227;6.376;-10.782;2023-03-14T14:15:33;32.70;99.90
56322;DHT22;42227;6.376;-10.782;2023-03-14T14:18:09;32.90;99.90
56322;DHT22;42227;6.376;-10.782;2023-03-14T14:20:40;33.30;99.90
56322;DHT22;42227;6.376;-10.782;2023-03-14T14:23:18;33.30;99.90
56322;DHT22;42227;6.376;-10.782;2023-03-14T14:25:50;33.50;99.90
56322;DHT22;42227;6.376;-10.782;2023-03-14T14:31:25;33.50;99.90
56322;DHT22;42227;6.376;-10.782;2023-03-14T14:34:00;33.40;99.90
56322;DHT22;42227;6.376;-10.782;2023-03-14T14:36:39;33.30;99.90
56322;DHT22;42227;6.376;-10.782;2023-03-14T14:39:17;33.00;99.90
56322;DHT22;42227;6.376;-10.782;2023-03-14T14:41:49;32.90;99.90
56322;DHT22;42227;6.376;-10.782;2023-03-14T14:44:18;33.00;99.90
56322;DHT22;42227;6.376;-10.782;2023-03-14T14:46:49;32.90;99.90
56322;DHT22;42227;6.376;-10.782;2023-03-14T14:49:19;32.70;99.90
56322;DHT22;42227;6.376;-10.782;2023-03-14T14:51:50;32.50;99.90
56322;DHT22;42227;6.376;-10.782;2023-03-14T14:54:21;32.40;99.90
56322;DHT22;42227;6.376;-10.782;2023-03-14T14:57:05;32.80;99.90
56322;DHT22;42227;6.376;-10.782;2023-03-14T14:59:42;32.70;99.90
56322;DHT22;42227;6.376;-10.782;2023-03-14T15:02:40;32.70;99.90
56322;DHT22;42227;6.376;-10.782;2023-03-14T15:07:45;32.60;99.90
56322;DHT22;42227;6.376;-10.782;2023-03-14T15:10:17;32.90;99.90
56322;DHT22;42227;6.376;-10.782;2023-03-14T15:12:46;32.80;99.90
56322;DHT22;42227;6.376;-10.782;2023-03-14T15:15:15;32.70;99.90
56322;DHT22;42227;6.376;-10.782;2023-03-14T15:17:44;32.90;99.90
56322;DHT22;42227;6.376;-10.782;2023-03-14T15:20:15;32.60;99.90
56322;DHT22;42227;6.376;-10.782;2023-03-14T15:22:44;32.70;99.90
56322;DHT22;42227;6.376;-10.782;2023-03-14T15:25:13;32.90;99.90
56322;DHT22;42227;6.376;-10.782;2023-03-14T15:28:02;33.10;99.90
56322;DHT22;42227;6.376;-10.782;2023-03-14T15:30:30;32.90;99.90
56322;DHT22;42227;6.376;-10.782;2023-03-14T15:33:01;32.80;99.90
56322;DHT22;42227;6.376;-10.782;2023-03-14T15:35:30;32.50;99.90
56322;DHT22;42227;6.376;-10.782;2023-03-14T15:37:58;32.40;99.90
56322;DHT22;42227;6.376;-10.782;2023-03-14T15:40:26;32.20;99.90
56322;DHT22;42227;6.376;-10.782;2023-03-14T15:42:57;32.30;99.90
56322;DHT22;42227;6.376;-10.782;2023-03-14T15:45:25;32.10;99.90
56322;DHT22;42227;6.376;-10.782;2023-03-14T15:47:54;32.20;99.90
56322;DHT22;42227;6.376;-10.782;2023-03-14T15:50:22;32.70;99.90
56322;DHT22;42227;6.376;-10.782;2023-03-14T15:52:51;32.50;99.90
56322;DHT22;42227;6.376;-10.782;2023-03-14T15:55:20;32.30;99.90
56322;DHT22;42227;6.376;-10.782;2023-03-14T15:57:48;32.40;99.90
56322;DHT22;42227;6.376;-10.782;2023-03-14T16:00:19;32.10;99.90
56322;DHT22;42227;6.376;-10.782;2023-03-14T16:02:48;32.20;99.90
56322;DHT22;42227;6.376;-10.782;2023-03-14T16:05:16;32.10;99.90
56322;DHT22;42227;6.376;-10.782;2023-03-14T16:07:45;32.00;99.90
56322;DHT22;42227;6.376;-10.782;2023-03-14T16:10:15;31.90;99.90
56322;DHT22;42227;6.376;-10.782;2023-03-14T16:12:43;31.90;99.90
56322;DHT22;42227;6.376;-10.782;2023-03-14T16:15:14;32.20;99.90
56322;DHT22;42227;6.376;-10.782;2023-03-14T16:17:43;32.00;99.90
56322;DHT22;42227;6.376;-10.782;2023-03-14T16:20:14;31.90;99.90
56322;DHT22;42227;6.376;-10.782;2023-03-14T16:22:42;31.90;99.90
56322;DHT22;42227;6.376;-10.782;2023-03-14T16:25:10;31.80;99.90
56322;DHT22;42227;6.376;-10.782;2023-03-14T16:27:39;31.70;99.90
56322;DHT22;42227;6.376;-10.782;2023-03-14T16:30:10;31.80;99.90
56322;DHT22;42227;6.376;-10.782;2023-03-14T16:32:38;31.70;99.90
56322;DHT22;42227;6.376;-10.782;2023-03-14T16:35:07;31.80;99.90
56322;DHT22;42227;6.376;-10.782;2023-03-14T16:37:35;32.00;99.90
56322;DHT22;42227;6.376;-10.782;2023-03-14T16:40:04;32.00;99.90
56322;DHT22;42227;6.376;-10.782;2023-03-14T16:42:40;32.00;99.90
56322;DHT22;42227;6.376;-10.782;2023-03-14T16:45:28;31.90;99.90
56322;DHT22;42227;6.376;-10.782;2023-03-14T16:47:56;31.60;99.90
56322;DHT22;42227;6.376;-10.782;2023-03-14T16:50:25;31.50;99.90
56322;DHT22;42227;6.376;-10.782;2023-03-14T16:52:54;31.10;99.90
56322;DHT22;42227;6.376;-10.782;2023-03-14T16:55:22;30.90;99.90
56322;DHT22;42227;6.376;-10.782;2023-03-14T16:57:50;30.90;99.90
56322;DHT22;42227;6.376;-10.782;2023-03-14T17:00:19;30.80;99.90
56322;DHT22;42227;6.376;-10.782;2023-03-14T17:02:47;31.00;99.90
56322;DHT22;42227;6.376;-10.782;2023-03-14T17:05:15;31.20;99.90
56322;DHT22;42227;6.376;-10.782;2023-03-14T17:07:44;31.10;99.90
56322;DHT22;42227;6.376;-10.782;2023-03-14T17:10:12;31.20;99.90
56322;DHT22;42227;6.376;-10.782;2023-03-14T17:12:41;31.40;99.90
56322;DHT22;42227;6.376;-10.782;2023-03-14T17:15:10;31.50;99.90
56322;DHT22;42227;6.376;-10.782;2023-03-14T17:17:39;31.40;99.90
56322;DHT22;42227;6.376;-10.782;2023-03-14T17:20:08;31.30;99.90
56322;DHT22;42227;6.376;-10.782;2023-03-14T17:22:36;31.30;99.90
56322;DHT22;42227;6.376;-10.782;2023-03-14T17:25:07;31.10;99.90